createdAt,value
2023-07-26T00:00:41.932Z,16.20
2023-07-26T00:03:11.628Z,17.80
2023-07-26T00:05:41.182Z,20.43
2023-07-26T00:08:10.712Z,21.57
2023-07-26T00:10:41.707Z,16.27
2023-07-26T00:13:11.120Z,17.37
2023-07-26T00:15:40.261Z,23.80
2023-07-26T00:18:09.839Z,32.93
2023-07-26T00:20:39.518Z,14.73
2023-07-26T00:23:09.077Z,21.97
2023-07-26T00:28:06.605Z,19.90
2023-07-26T00:30:34.712Z,22.20
2023-07-26T00:33:02.892Z,19.03
2023-07-26T00:35:37.500Z,19.13
2023-07-26T00:38:05.623Z,14.80
2023-07-26T00:40:33.846Z,21.03
2023-07-26T00:43:02.087Z,18.40
2023-07-26T00:45:32.569Z,20.90
2023-07-26T00:48:00.682Z,11.47
2023-07-26T00:50:29.116Z,19.20
2023-07-26T00:52:57.377Z,18.93
2023-07-26T00:55:26.181Z,16.37
2023-07-26T00:57:54.686Z,15.00
2023-07-26T01:00:22.833Z,21.23
2023-07-26T01:02:52.351Z,18.30
2023-07-26T01:05:23.964Z,15.97
2023-07-26T01:08:08.933Z,15.77
2023-07-26T01:10:43.673Z,13.60
2023-07-26T01:13:22.214Z,17.27
2023-07-26T01:15:51.739Z,12.00
2023-07-26T01:18:21.317Z,16.57
2023-07-26T01:20:49.455Z,13.30
2023-07-26T01:23:18.889Z,13.73
2023-07-26T01:25:47.012Z,14.13
2023-07-26T01:28:15.082Z,17.60
2023-07-26T01:30:45.078Z,17.33
2023-07-26T01:33:14.613Z,14.90
2023-07-26T01:35:42.890Z,13.10
2023-07-26T01:38:12.406Z,13.40
2023-07-26T01:40:43.028Z,17.50
2023-07-26T01:43:11.245Z,13.60
2023-07-26T01:45:39.489Z,10.73
2023-07-26T01:48:07.794Z,16.80
2023-07-26T01:50:35.934Z,17.00
2023-07-26T01:53:04.007Z,12.77
2023-07-26T01:55:32.074Z,15.23
2023-07-26T01:58:01.517Z,11.57
2023-07-26T02:00:29.609Z,19.53
2023-07-26T02:02:57.684Z,12.53
2023-07-26T02:05:26.665Z,9.20
2023-07-26T02:07:54.753Z,11.33
2023-07-26T02:10:24.037Z,14.87
2023-07-26T02:12:52.123Z,10.97
2023-07-26T02:15:22.571Z,17.43
2023-07-26T02:17:50.678Z,13.43
2023-07-26T02:20:18.790Z,14.40
2023-07-26T02:22:46.905Z,15.10
2023-07-26T02:25:15.110Z,22.30
2023-07-26T02:27:43.359Z,12.23
2023-07-26T02:30:12.009Z,13.13
2023-07-26T02:32:41.572Z,12.20
2023-07-26T02:35:10.236Z,15.60
2023-07-26T02:37:38.366Z,12.93
2023-07-26T02:40:07.167Z,12.03
2023-07-26T02:42:35.358Z,14.67
2023-07-26T02:45:03.545Z,15.70
2023-07-26T02:47:33.639Z,12.87
2023-07-26T02:50:05.865Z,14.90
2023-07-26T02:52:34.470Z,15.67
2023-07-26T02:55:02.624Z,12.00
2023-07-26T02:57:30.729Z,15.07
2023-07-26T02:59:59.289Z,16.47
2023-07-26T03:02:28.742Z,11.17
2023-07-26T03:04:56.993Z,12.87
2023-07-26T03:07:26.447Z,8.73
2023-07-26T03:09:55.336Z,16.70
2023-07-26T03:12:23.487Z,9.07
2023-07-26T03:14:51.558Z,12.17
2023-07-26T03:17:22.626Z,14.17
2023-07-26T03:19:52.379Z,15.10
2023-07-26T03:22:20.801Z,14.43
2023-07-26T03:24:50.358Z,12.07
2023-07-26T03:27:18.550Z,10.87
2023-07-26T03:29:46.650Z,10.77
2023-07-26T03:32:14.760Z,16.67
2023-07-26T03:34:42.954Z,13.60
2023-07-26T03:37:11.518Z,12.70
2023-07-26T03:39:39.615Z,11.83
2023-07-26T03:42:09.469Z,14.17
2023-07-26T03:44:38.772Z,13.20
2023-07-26T03:47:08.557Z,14.30
2023-07-26T03:49:36.615Z,11.17
2023-07-26T03:52:05.890Z,10.63
2023-07-26T03:54:33.965Z,14.77
2023-07-26T03:57:02.089Z,8.57
2023-07-26T03:59:31.907Z,10.57
2023-07-26T04:02:00.035Z,11.17
2023-07-26T04:04:28.144Z,13.87
2023-07-26T04:06:56.306Z,9.07
2023-07-26T04:09:24.590Z,9.17
2023-07-26T04:11:56.276Z,13.40
2023-07-26T04:14:24.437Z,10.47
2023-07-26T04:16:54.052Z,11.90
2023-07-26T04:19:22.120Z,14.83
2023-07-26T04:21:50.269Z,14.33
2023-07-26T04:24:18.982Z,13.50
2023-07-26T04:26:47.088Z,10.77
2023-07-26T04:29:15.203Z,10.60
2023-07-26T04:31:43.336Z,16.20
2023-07-26T04:34:13.630Z,7.80
2023-07-26T04:36:42.302Z,9.40
2023-07-26T04:39:10.419Z,10.47
2023-07-26T04:41:38.468Z,10.80
2023-07-26T04:44:06.928Z,13.47
2023-07-26T04:46:35.323Z,14.90
2023-07-26T04:49:03.918Z,9.80
2023-07-26T04:51:33.715Z,15.07
2023-07-26T04:54:04.682Z,13.03
2023-07-26T04:56:33.205Z,10.00
2023-07-26T04:59:01.567Z,12.10
2023-07-26T05:01:29.642Z,11.13
2023-07-26T05:03:57.757Z,13.83
2023-07-26T05:06:26.416Z,10.70
2023-07-26T05:08:55.860Z,13.27
2023-07-26T05:11:24.294Z,12.23
2023-07-26T05:13:52.558Z,9.13
2023-07-26T05:16:20.666Z,13.13
2023-07-26T05:18:48.848Z,12.30
2023-07-26T05:21:16.944Z,10.13
2023-07-26T05:23:45.066Z,10.77
2023-07-26T05:26:14.963Z,12.53
2023-07-26T05:28:43.032Z,11.67
2023-07-26T05:31:11.326Z,11.00
2023-07-26T05:33:39.411Z,11.53
2023-07-26T05:36:08.050Z,12.63
2023-07-26T05:38:36.177Z,20.23
2023-07-26T05:41:05.625Z,9.60
2023-07-26T05:43:35.204Z,11.60
2023-07-26T05:46:03.992Z,11.03
2023-07-26T05:48:32.570Z,11.17
2023-07-26T05:51:00.686Z,11.47
2023-07-26T05:53:28.901Z,10.07
2023-07-26T05:55:56.996Z,13.80
2023-07-26T05:58:25.070Z,10.90
2023-07-26T06:00:54.781Z,7.63
2023-07-26T06:03:22.925Z,12.87
2023-07-26T06:05:51.715Z,10.43
2023-07-26T06:08:20.284Z,17.17
2023-07-26T06:10:48.374Z,14.53
2023-07-26T06:13:17.034Z,14.03
2023-07-26T06:15:45.865Z,10.30
2023-07-26T06:18:15.342Z,11.00
2023-07-26T06:20:43.442Z,16.20
2023-07-26T06:23:11.515Z,10.93
2023-07-26T06:25:39.641Z,16.93
2023-07-26T06:28:07.852Z,11.43
2023-07-26T06:30:36.072Z,9.77
2023-07-26T06:33:04.210Z,10.73
2023-07-26T06:35:33.671Z,10.10
2023-07-26T06:38:01.773Z,10.80
2023-07-26T06:40:29.875Z,8.47
2023-07-26T06:42:57.963Z,10.20
2023-07-26T06:45:26.057Z,6.50
2023-07-26T06:47:54.946Z,8.20
2023-07-26T06:50:23.042Z,8.83
2023-07-26T06:52:52.464Z,12.00
2023-07-26T06:55:20.531Z,8.33
2023-07-26T06:57:48.639Z,10.23
2023-07-26T07:00:17.671Z,9.77
2023-07-26T07:02:45.833Z,9.50
2023-07-26T07:05:15.595Z,14.73
2023-07-26T07:07:44.017Z,13.90
2023-07-26T07:10:13.520Z,12.73
2023-07-26T07:12:41.644Z,13.80
2023-07-26T07:15:10.579Z,7.97
2023-07-26T07:17:38.746Z,10.40
2023-07-26T07:20:08.352Z,9.90
2023-07-26T07:22:36.540Z,8.67
2023-07-26T07:25:05.354Z,11.40
2023-07-26T07:27:35.245Z,11.47
2023-07-26T07:30:03.394Z,18.50
2023-07-26T07:32:31.616Z,8.97
2023-07-26T07:34:59.818Z,15.63
2023-07-26T07:37:29.218Z,10.70
2023-07-26T07:39:57.476Z,9.90
2023-07-26T07:42:25.764Z,8.17
2023-07-26T07:44:55.388Z,12.17
2023-07-26T07:47:23.543Z,12.17
2023-07-26T07:49:51.709Z,10.70
2023-07-26T07:52:19.823Z,8.67
2023-07-26T07:54:48.045Z,10.90
2023-07-26T07:57:17.824Z,14.00
2023-07-26T07:59:45.971Z,8.03
2023-07-26T08:02:15.463Z,11.97
2023-07-26T08:04:43.520Z,8.60
2023-07-26T08:07:11.618Z,10.93
2023-07-26T08:09:39.925Z,6.90
2023-07-26T08:12:08.581Z,8.97
2023-07-26T08:14:37.028Z,8.70
2023-07-26T08:17:05.869Z,7.97
2023-07-26T08:19:35.469Z,7.53
2023-07-26T08:22:04.202Z,5.70
2023-07-26T08:24:32.942Z,3.87
2023-07-26T08:27:01.449Z,5.17
2023-07-26T08:29:29.537Z,3.60
2023-07-26T08:31:57.785Z,3.30
2023-07-26T08:34:26.002Z,4.80
2023-07-26T08:36:55.519Z,2.60
2023-07-26T08:39:34.925Z,2.80
2023-07-26T08:42:04.748Z,3.40
2023-07-26T08:44:35.360Z,7.73
2023-07-26T08:47:06.840Z,2.13
2023-07-26T08:49:35.098Z,2.10
2023-07-26T08:52:06.242Z,2.60
2023-07-26T08:54:35.487Z,2.97
2023-07-26T08:57:03.911Z,2.63
2023-07-26T08:59:32.037Z,1.80
2023-07-26T09:02:04.193Z,1.67
2023-07-26T09:04:33.570Z,1.90
2023-07-26T09:07:03.285Z,2.03
2023-07-26T09:09:34.111Z,1.60
2023-07-26T09:12:04.073Z,2.20
2023-07-26T09:14:34.088Z,1.63
2023-07-26T09:17:03.715Z,3.00
2023-07-26T09:19:33.273Z,3.50
2023-07-26T09:22:02.180Z,2.43
2023-07-26T09:24:36.109Z,2.07
2023-07-26T09:27:09.301Z,1.93
2023-07-26T09:29:38.386Z,2.20
2023-07-26T09:32:08.142Z,1.93
2023-07-26T09:34:36.463Z,2.40
2023-07-26T09:37:05.118Z,1.90
2023-07-26T09:39:35.663Z,2.83
2023-07-26T09:42:08.046Z,2.50
2023-07-26T09:44:37.180Z,2.13
2023-07-26T09:47:06.993Z,4.20
2023-07-26T09:49:44.655Z,1.97
2023-07-26T09:52:15.193Z,5.43
2023-07-26T09:54:46.111Z,2.00
2023-07-26T09:57:18.455Z,2.20
2023-07-26T09:59:48.852Z,2.60
2023-07-26T10:02:17.440Z,5.43
2023-07-26T10:04:51.483Z,3.00
2023-07-26T10:07:20.220Z,2.90
2023-07-26T10:09:50.397Z,2.73
2023-07-26T10:12:18.557Z,2.50
2023-07-26T10:14:48.615Z,3.40
2023-07-26T10:17:19.990Z,2.60
2023-07-26T10:19:49.470Z,2.83
2023-07-26T10:22:17.743Z,2.50
2023-07-26T10:24:49.028Z,3.33
2023-07-26T10:27:17.875Z,3.10
2023-07-26T10:29:46.801Z,4.00
2023-07-26T10:32:14.953Z,3.73
2023-07-26T10:34:44.042Z,3.90
2023-07-26T10:37:16.719Z,3.17
2023-07-26T10:39:45.475Z,4.77
2023-07-26T10:42:28.796Z,3.03
2023-07-26T10:44:59.460Z,2.37
2023-07-26T10:47:27.908Z,2.43
2023-07-26T10:49:58.258Z,3.83
2023-07-26T10:52:37.588Z,3.63
2023-07-26T10:55:23.714Z,2.50
2023-07-26T10:57:53.703Z,3.30
2023-07-26T11:00:34.839Z,9.83
2023-07-26T11:03:04.475Z,2.70
2023-07-26T11:05:33.542Z,3.47
2023-07-26T11:08:03.333Z,4.10
2023-07-26T11:10:33.275Z,4.80
2023-07-26T11:13:13.761Z,10.57
2023-07-26T11:15:49.631Z,2.70
2023-07-26T11:18:31.614Z,3.70
2023-07-26T11:20:59.906Z,2.57
2023-07-26T11:23:29.279Z,6.83
2023-07-26T11:25:59.796Z,2.13
2023-07-26T11:28:34.202Z,2.87
2023-07-26T11:31:03.348Z,1.53
2023-07-26T11:33:32.972Z,3.53
2023-07-26T11:36:02.562Z,2.40
2023-07-26T11:38:30.798Z,2.50
2023-07-26T11:40:58.977Z,3.10
2023-07-26T11:43:28.524Z,1.60
2023-07-26T11:45:59.004Z,2.30
2023-07-26T11:48:32.361Z,3.43
2023-07-26T11:51:04.884Z,2.07
2023-07-26T11:53:44.239Z,3.67
2023-07-26T11:56:15.129Z,3.53
2023-07-26T11:58:45.249Z,4.13
2023-07-26T12:01:16.682Z,2.33
2023-07-26T12:03:44.958Z,1.97
2023-07-26T12:06:13.174Z,1.50
2023-07-26T12:08:41.309Z,4.13
2023-07-26T12:11:09.639Z,2.53
2023-07-26T12:13:38.635Z,1.70
2023-07-26T12:16:07.109Z,2.93
2023-07-26T12:18:37.093Z,1.70
2023-07-26T12:21:10.016Z,3.27
2023-07-26T12:23:52.920Z,2.50
2023-07-26T12:28:56.737Z,1.90
2023-07-26T12:31:26.277Z,1.93
2023-07-26T12:34:00.932Z,3.23
2023-07-26T12:36:31.288Z,2.20
2023-07-26T12:39:00.023Z,1.60
2023-07-26T12:41:28.567Z,2.57
2023-07-26T12:43:58.402Z,4.03
2023-07-26T12:46:26.608Z,2.30
2023-07-26T12:48:57.074Z,11.10
2023-07-26T12:51:26.944Z,2.00
2023-07-26T12:53:55.470Z,1.50
2023-07-26T12:56:24.768Z,1.60
2023-07-26T12:59:06.186Z,5.20
2023-07-26T13:01:38.114Z,4.73
2023-07-26T13:04:08.031Z,2.67
2023-07-26T13:06:39.081Z,2.07
2023-07-26T13:09:07.693Z,2.97
2023-07-26T13:11:35.885Z,2.73
2023-07-26T13:14:04.115Z,2.13
2023-07-26T13:16:33.906Z,3.13
2023-07-26T13:19:03.104Z,2.83
2023-07-26T13:21:31.487Z,2.50
2023-07-26T13:24:01.232Z,2.83
2023-07-26T13:26:30.160Z,4.03
2023-07-26T13:28:58.465Z,3.17
2023-07-26T13:31:26.577Z,3.03
2023-07-26T13:33:54.694Z,4.20
2023-07-26T13:36:23.893Z,2.90
2023-07-26T13:38:52.669Z,1.80
2023-07-26T13:41:22.217Z,2.60
2023-07-26T13:43:50.333Z,2.80
2023-07-26T13:48:49.471Z,2.47
2023-07-26T13:51:17.653Z,2.30
2023-07-26T13:53:45.939Z,2.70
2023-07-26T13:56:14.343Z,2.33
2023-07-26T13:58:45.129Z,3.97
2023-07-26T14:01:14.509Z,1.90
2023-07-26T14:03:42.763Z,2.97
2023-07-26T14:06:10.831Z,3.60
2023-07-26T14:08:38.997Z,4.63
2023-07-26T14:11:07.213Z,3.10
2023-07-26T14:13:35.369Z,2.47
2023-07-26T14:16:20.173Z,4.20
2023-07-26T14:18:52.986Z,2.20
2023-07-26T14:21:21.134Z,1.87
2023-07-26T14:23:49.544Z,2.33
2023-07-26T14:26:17.624Z,4.33
2023-07-26T14:28:45.738Z,4.23
2023-07-26T14:31:15.246Z,2.50
2023-07-26T14:33:43.464Z,8.23
2023-07-26T14:36:11.628Z,4.60
2023-07-26T14:38:39.771Z,4.23
2023-07-26T14:41:08.408Z,2.30
2023-07-26T14:43:36.937Z,3.23
2023-07-26T14:46:08.697Z,2.63
2023-07-26T14:48:38.567Z,2.20
2023-07-26T14:51:06.966Z,1.87
2023-07-26T14:53:35.372Z,1.90
2023-07-26T14:56:03.837Z,4.37
2023-07-26T14:58:34.398Z,4.10
2023-07-26T15:01:05.745Z,4.20
2023-07-26T15:03:34.214Z,1.97
2023-07-26T15:06:04.149Z,4.90
2023-07-26T15:08:32.607Z,4.03
2023-07-26T15:11:06.596Z,5.17
2023-07-26T15:13:34.961Z,4.97
2023-07-26T15:16:07.185Z,3.07
2023-07-26T15:18:37.712Z,4.30
2023-07-26T15:21:07.629Z,2.87
2023-07-26T15:23:36.335Z,2.47
2023-07-26T15:26:04.955Z,7.07
2023-07-26T15:28:33.323Z,4.03
2023-07-26T15:31:01.720Z,2.60
2023-07-26T15:33:30.182Z,2.60
2023-07-26T15:35:58.723Z,4.83
2023-07-26T15:38:28.446Z,3.47
2023-07-26T15:40:56.869Z,2.27
2023-07-26T15:43:25.298Z,6.63
2023-07-26T15:45:55.308Z,4.40
2023-07-26T15:48:24.113Z,5.97
2023-07-26T15:50:55.368Z,2.13
2023-07-26T15:53:23.973Z,2.43
2023-07-26T15:55:53.792Z,4.60
2023-07-26T15:58:26.948Z,3.63
2023-07-26T16:00:58.795Z,2.00
2023-07-26T16:11:02.660Z,4.23
2023-07-26T16:13:31.042Z,2.70
2023-07-26T16:18:36.881Z,2.23
2023-07-26T16:23:45.068Z,1.47
2023-07-26T16:26:19.650Z,3.80
2023-07-26T16:28:48.036Z,4.50
2023-07-26T16:31:18.346Z,1.53
2023-07-26T16:33:47.021Z,2.10
2023-07-26T16:36:15.432Z,4.63
2023-07-26T16:38:43.832Z,2.03
2023-07-26T16:41:12.325Z,1.70
2023-07-26T16:43:42.626Z,1.43
2023-07-26T16:46:11.046Z,1.40
2023-07-26T16:48:39.490Z,1.70
2023-07-26T16:51:07.993Z,1.70
2023-07-26T16:53:36.430Z,1.77
2023-07-26T16:56:04.688Z,2.27
2023-07-26T16:58:32.773Z,1.80
2023-07-26T17:01:03.144Z,3.70
2023-07-26T17:03:31.461Z,1.90
2023-07-26T17:05:59.745Z,2.67
2023-07-26T17:08:27.966Z,3.43
2023-07-26T17:10:56.077Z,2.43
2023-07-26T17:13:25.115Z,1.93
2023-07-26T17:15:53.937Z,2.43
2023-07-26T17:18:24.113Z,2.50
2023-07-26T17:20:53.493Z,2.87
2023-07-26T17:23:24.742Z,2.00
2023-07-26T17:25:56.989Z,5.43
2023-07-26T17:28:25.394Z,3.10
2023-07-26T17:30:56.249Z,1.77
2023-07-26T17:33:28.384Z,2.20
2023-07-26T17:35:56.845Z,2.30
2023-07-26T17:38:25.212Z,4.93
2023-07-26T17:40:57.772Z,3.13
2023-07-26T17:43:26.152Z,2.13
2023-07-26T17:45:54.601Z,2.77
2023-07-26T17:48:23.065Z,2.20
2023-07-26T17:50:55.013Z,4.80
2023-07-26T17:53:24.021Z,4.23
2023-07-26T17:55:52.446Z,2.87
2023-07-26T17:58:20.887Z,4.30
2023-07-26T18:00:49.383Z,3.00
2023-07-26T18:03:17.946Z,5.93
2023-07-26T18:05:48.916Z,3.58
2023-07-26T18:08:21.833Z,3.33
2023-07-26T18:10:50.241Z,8.23
2023-07-26T18:13:18.623Z,2.20
2023-07-26T18:15:50.760Z,3.47
2023-07-26T18:18:21.332Z,2.80
2023-07-26T18:20:49.740Z,2.70
2023-07-26T18:23:18.127Z,3.10
2023-07-26T18:28:22.782Z,3.10
2023-07-26T18:30:51.243Z,4.67
2023-07-26T18:33:19.646Z,3.80
2023-07-26T18:35:48.124Z,4.63
2023-07-26T18:38:16.481Z,3.97
2023-07-26T18:40:44.815Z,10.30
2023-07-26T18:43:13.231Z,3.07
2023-07-26T18:45:42.974Z,4.33
2023-07-26T18:48:11.421Z,3.57
2023-07-26T18:50:41.260Z,4.87
2023-07-26T18:53:09.694Z,3.00
2023-07-26T18:55:41.673Z,2.40
2023-07-26T18:58:10.214Z,4.90
2023-07-26T19:00:38.725Z,5.13
2023-07-26T19:03:08.565Z,5.47
2023-07-26T19:05:39.490Z,11.73
2023-07-26T19:08:08.271Z,2.67
2023-07-26T19:10:40.609Z,4.57
2023-07-26T19:13:09.099Z,4.50
2023-07-26T19:15:37.551Z,3.57
2023-07-26T19:18:06.164Z,6.73
2023-07-26T19:20:36.004Z,5.00
2023-07-26T19:23:04.493Z,4.37
2023-07-26T19:25:33.822Z,3.80
2023-07-26T19:28:02.402Z,3.17
2023-07-26T19:30:31.810Z,4.07
2023-07-26T19:33:00.296Z,3.40
2023-07-26T19:35:29.977Z,11.50
2023-07-26T19:37:59.861Z,5.73
2023-07-26T19:40:28.388Z,6.50
2023-07-26T19:42:56.737Z,6.73
2023-07-26T19:45:25.475Z,4.50
2023-07-26T19:47:53.918Z,2.80
2023-07-26T19:50:22.322Z,4.17
2023-07-26T19:52:51.824Z,3.20
2023-07-26T19:55:21.665Z,2.90
2023-07-26T19:57:50.052Z,4.50
2023-07-26T20:00:18.563Z,4.30
2023-07-26T20:02:47.055Z,4.60
2023-07-26T20:05:15.528Z,5.83
2023-07-26T20:07:43.928Z,6.77
2023-07-26T20:10:12.453Z,6.63
2023-07-26T20:12:42.194Z,4.43
2023-07-26T20:15:10.867Z,6.20
2023-07-26T20:17:39.352Z,3.57
2023-07-26T20:20:08.538Z,4.97
2023-07-26T20:22:36.991Z,14.90
2023-07-26T20:25:05.658Z,8.90
2023-07-26T20:27:34.039Z,14.53
2023-07-26T20:30:03.881Z,7.70
2023-07-26T20:32:33.017Z,8.20
2023-07-26T20:35:01.399Z,7.73
2023-07-26T20:37:29.797Z,8.63
2023-07-26T20:39:58.947Z,7.40
2023-07-26T20:42:31.120Z,5.70
2023-07-26T20:44:59.868Z,16.67
2023-07-26T20:47:29.642Z,7.90
2023-07-26T20:49:58.048Z,16.23
2023-07-26T20:52:26.436Z,5.07
2023-07-26T20:54:55.213Z,12.43
2023-07-26T20:57:23.641Z,5.03
2023-07-26T20:59:52.094Z,9.30
2023-07-26T21:02:20.588Z,8.97
2023-07-26T21:04:50.525Z,7.53
2023-07-26T21:07:18.938Z,4.83
2023-07-26T21:09:47.308Z,5.87
2023-07-26T21:12:15.730Z,5.80
2023-07-26T21:14:45.490Z,7.07
2023-07-26T21:17:14.359Z,5.83
2023-07-26T21:19:42.869Z,7.63
2023-07-26T21:22:14.006Z,7.17
2023-07-26T21:24:42.457Z,8.43
2023-07-26T21:27:10.888Z,8.57
2023-07-26T21:29:39.301Z,6.77
2023-07-26T21:32:08.290Z,13.33
2023-07-26T21:34:36.732Z,8.90
2023-07-26T21:37:05.336Z,5.40
2023-07-26T21:39:35.135Z,8.17
2023-07-26T21:42:03.559Z,8.07
2023-07-26T21:44:31.980Z,9.53
2023-07-26T21:47:00.345Z,4.80
2023-07-26T21:49:28.721Z,4.37
2023-07-26T21:51:57.080Z,5.17
2023-07-26T21:54:25.523Z,9.13
2023-07-26T21:56:54.284Z,4.77
2023-07-26T21:59:22.658Z,4.50
2023-07-26T22:01:51.132Z,5.03
2023-07-26T22:04:19.612Z,5.00
2023-07-26T22:06:48.052Z,3.33
2023-07-26T22:09:16.514Z,7.43
2023-07-26T22:11:44.883Z,5.23
2023-07-26T22:14:14.627Z,4.77
2023-07-26T22:16:43.061Z,6.50
2023-07-26T22:19:11.426Z,12.80
2023-07-26T22:21:39.831Z,4.33
2023-07-26T22:24:08.508Z,7.43
2023-07-26T22:26:37.204Z,4.13
2023-07-26T22:29:05.860Z,5.50
2023-07-26T22:31:35.931Z,6.50
2023-07-26T22:34:04.720Z,10.13
2023-07-26T22:36:33.655Z,3.70
2023-07-26T22:39:02.347Z,6.80
2023-07-26T22:41:30.722Z,6.33
2023-07-26T22:43:59.266Z,8.00
2023-07-26T22:46:27.716Z,8.83
2023-07-26T22:48:57.641Z,7.17
2023-07-26T22:51:26.000Z,4.47
2023-07-26T22:53:54.322Z,5.00
2023-07-26T22:56:22.943Z,5.93
2023-07-26T22:58:51.362Z,8.47
2023-07-26T23:01:20.313Z,5.90
2023-07-26T23:03:48.857Z,4.33
2023-07-26T23:06:18.606Z,4.10
2023-07-26T23:08:47.057Z,6.20
2023-07-26T23:11:15.443Z,7.70
2023-07-26T23:13:43.827Z,5.07
2023-07-26T23:16:12.368Z,6.57
2023-07-26T23:18:40.799Z,6.27
2023-07-26T23:21:09.218Z,5.27
2023-07-26T23:23:38.996Z,3.83
2023-07-26T23:26:07.367Z,5.50
2023-07-26T23:28:35.743Z,9.60
2023-07-26T23:31:08.120Z,6.50
2023-07-26T23:33:36.709Z,3.53
2023-07-26T23:36:05.152Z,3.50
2023-07-26T23:38:33.559Z,4.50
2023-07-26T23:41:03.578Z,6.30
2023-07-26T23:43:31.969Z,6.90
2023-07-26T23:46:00.353Z,6.47
2023-07-26T23:48:28.712Z,5.53
2023-07-26T23:50:57.416Z,3.97
2023-07-26T23:53:25.814Z,5.87
2023-07-26T23:55:54.190Z,5.90
2023-07-26T23:58:23.933Z,4.13
